Information Last Ob Photographs Meteogram Network Table Neighbors Monthly Summaries Observation History Wind Roses Custom Wind Roses Data Calendar Satellite Cloud Product Download Terminal Aerodome Forecast

03 December 2022 Observation History, [PVD] PROVIDENCE/GREEN, timezone: America/New_York

Select Date: Time Order:

Show METARs   Show High Frequency MADIS

Previous Day
Time Wind
(mph)
Vis.
(mi.)
Sky Cond.
(100s ft)
Present Wx Temperature (ºF) Relative
Humidity
Pressure Snow
Depth
(in)
Precipitation (in.)
Air Dwpt Feels Like 6 hour altimeter
(in.)
sea level
(mb)
1 hr 3 hr 6 hr
Max.Min.
12:00 AMSSW 510 CLR
% 30.43
KPVD 030500Z AUTO 19004KT 10SM CLR 03/01 A3043 RMK T00300010 MADISHF
12:05 AMSSW 510 CLR
% 30.43
KPVD 030505Z AUTO 21004KT 10SM CLR 03/01 A3043 RMK T00300010 MADISHF
12:10 AMSSW 510 CLR
% 30.43
KPVD 030510Z AUTO 21004KT 10SM CLR 03/01 A3043 RMK T00300010 MADISHF
12:15 AMSSW 510 CLR
% 30.43
KPVD 030515Z AUTO 21004KT 10SM CLR 03/01 A3043 RMK T00300010 MADISHF
12:20 AMSW 510 CLR
% 30.43
KPVD 030520Z AUTO 22004KT 10SM CLR 03/01 A3043 RMK T00300010 MADISHF
12:25 AMSW 510 CLR
% 30.43
KPVD 030525Z AUTO 22004KT 10SM CLR 03/01 A3043 RMK T00300010 MADISHF
12:30 AMSW 610 CLR
% 30.43
KPVD 030530Z AUTO 23005KT 10SM CLR 03/01 A3043 RMK T00300010 MADISHF
12:35 AMWSW 510 CLR
% 30.43
KPVD 030535Z AUTO 24004KT 10SM CLR 04/01 A3043 RMK T00400010 MADISHF
12:40 AMWSW 510 CLR
% 30.43
KPVD 030540Z AUTO 24004KT 10SM CLR 03/01 A3043 RMK T00300010 MADISHF
12:45 AMWSW 210 CLR
% 30.44
KPVD 030545Z AUTO 25002KT 10SM CLR 03/01 A3044 RMK T00300010 MADISHF
12:50 AMCalm10 CLR
% 30.43
KPVD 030550Z AUTO 00000KT 10SM CLR 03/01 A3043 RMK T00300010 MADISHF
12:51 AMCalm10 CLR
373337 40 36 86% 30.431030.60
KPVD 030551Z AUTO 00000KT 10SM CLR 03/01 A3043 RMK AO2 SLP306 T00280006 10044 20022 55011
12:55 AMCalm10 CLR
% 30.43
KPVD 030555Z AUTO 00000KT 10SM CLR 03/01 A3043 RMK T00300010 MADISHF
1:00 AMCalm10 CLR
% 30.43
KPVD 030600Z AUTO 00000KT 10SM CLR 03/01 A3043 RMK T00300010 MADISHF
1:05 AMCalm10 CLR
% 30.43
KPVD 030605Z AUTO 00000KT 10SM CLR 03/01 A3043 RMK T00300010 MADISHF
1:10 AMCalm10 CLR
% 30.42
KPVD 030610Z AUTO 00000KT 10SM CLR 02/01 A3042 RMK T00200010 MADISHF
1:15 AMCalm10 CLR
% 30.42
KPVD 030615Z AUTO 00000KT 10SM CLR 02/00 A3042 RMK T00200000 MADISHF
1:20 AMCalm10 CLR
% 30.42
KPVD 030620Z AUTO 00000KT 10SM CLR 01/00 A3042 RMK T00100000 MADISHF
1:25 AMCalm10 CLR
% 30.41
KPVD 030625Z AUTO 00000KT 10SM CLR 02/00 A3041 RMK T00200000 MADISHF
1:30 AMCalm10 CLR
% 30.41
KPVD 030630Z AUTO 00000KT 10SM CLR 02/M01 A3041 RMK T00201010 MADISHF
1:35 AMCalm10 CLR
% 30.41
KPVD 030635Z AUTO 00000KT 10SM CLR 02/M01 A3041 RMK T00201010 MADISHF
1:40 AMCalm10 CLR
% 30.41
KPVD 030640Z AUTO 00000KT 10SM CLR 01/M01 A3041 RMK T00101010 MADISHF
1:45 AMCalm10 SCT120
% 30.41
KPVD 030645Z AUTO 00000KT 10SM SCT120 02/01 A3041 RMK T00200010 MADISHF
1:50 AMCalm10 BKN120
% 30.41
KPVD 030650Z AUTO 00000KT 10SM BKN120 02/01 A3041 RMK T00200010 MADISHF
1:51 AMCalm10 BKN120
363436 92% 30.411029.80
KPVD 030651Z AUTO 00000KT 10SM BKN120 02/01 A3041 RMK AO2 SLP298 T00220011
1:55 AMCalm10 BKN120
% 30.4
KPVD 030655Z AUTO 00000KT 10SM BKN120 01/01 A3040 RMK T00100010 MADISHF
2:00 AMCalm10 BKN120
% 30.4
KPVD 030700Z AUTO 00000KT 10SM BKN120 01/00 A3040 RMK T00100000 MADISHF
2:05 AMCalm10 OVC120
% 30.4
KPVD 030705Z AUTO 00000KT 10SM OVC120 02/01 A3040 RMK T00200010 MADISHF
2:10 AMCalm10 OVC120
% 30.4
KPVD 030710Z AUTO 00000KT 10SM OVC120 02/01 A3040 RMK T00200010 MADISHF
2:15 AMCalm10 OVC120
% 30.4
KPVD 030715Z AUTO 00000KT 10SM OVC120 02/01 A3040 RMK T00200010 MADISHF
2:20 AMCalm10 BKN120
% 30.4
KPVD 030720Z AUTO 00000KT 10SM BKN120 02/01 A3040 RMK T00200010 MADISHF
2:25 AMCalm10 BKN120
% 30.4
KPVD 030725Z AUTO 00000KT 10SM BKN120 02/01 A3040 RMK T00200010 MADISHF
2:30 AMCalm10 BKN120
% 30.39
KPVD 030730Z AUTO 00000KT 10SM BKN120 02/01 A3039 RMK T00200010 MADISHF
2:35 AMCalm10 BKN120
% 30.39
KPVD 030735Z AUTO 00000KT 10SM BKN120 02/01 A3039 RMK T00200010 MADISHF
2:40 AMCalm10 BKN120
% 30.39
KPVD 030740Z AUTO 00000KT 10SM BKN120 03/01 A3039 RMK T00300010 MADISHF
2:45 AMCalm10 BKN120
% 30.39
KPVD 030745Z AUTO 00000KT 10SM BKN120 02/01 A3039 RMK T00200010 MADISHF
2:50 AMCalm10 FEW031
BKN120
% 30.39
KPVD 030750Z AUTO 00000KT 10SM FEW031 BKN120 03/01 A3039 RMK T00300010 MADISHF
2:51 AMCalm10 FEW031
BKN120
363436 92% 30.381028.90
KPVD 030751Z AUTO 00000KT 10SM FEW031 BKN120 02/01 A3038 RMK AO2 SLP289 T00220011
2:55 AMCalm10 SCT031
BKN120
% 30.38
KPVD 030755Z AUTO 00000KT 10SM SCT031 BKN120 02/01 A3038 RMK T00200010 MADISHF
3:00 AMCalm10 SCT031
BKN120
% 30.37
KPVD 030800Z AUTO 00000KT 10SM SCT031 BKN120 02/01 A3037 RMK T00200010 MADISHF
3:05 AMCalm10 FEW031
BKN120
% 30.37
KPVD 030805Z AUTO 00000KT 10SM FEW031 BKN120 02/01 A3037 RMK T00200010 MADISHF
3:10 AMCalm10 FEW031
BKN120
% 30.36
KPVD 030810Z AUTO 00000KT 10SM FEW031 BKN120 02/01 A3036 RMK T00200010 MADISHF
3:15 AMCalm10 FEW031
SCT120
% 30.36
KPVD 030815Z AUTO 00000KT 10SM FEW031 SCT120 02/01 A3036 RMK T00200010 MADISHF
3:20 AMCalm10 FEW031
FEW120
% 30.36
KPVD 030820Z AUTO 00000KT 10SM FEW031 FEW120 02/01 A3036 RMK T00200010 MADISHF
3:25 AMCalm10 FEW120
% 30.35
KPVD 030825Z AUTO 00000KT 10SM FEW120 02/01 A3035 RMK T00200010 MADISHF
3:30 AMCalm10 FEW120
% 30.35
KPVD 030830Z AUTO 00000KT 10SM FEW120 02/01 A3035 RMK T00200010 MADISHF
3:35 AMCalm10 FEW120
% 30.35
KPVD 030835Z AUTO 00000KT 10SM FEW120 02/01 A3035 RMK T00200010 MADISHF
3:40 AMCalm10 CLR
% 30.35
KPVD 030840Z AUTO 00000KT 10SM CLR 02/01 A3035 RMK T00200010 MADISHF
3:45 AMCalm10 FEW120
% 30.34
KPVD 030845Z AUTO 00000KT 10SM FEW120 02/01 A3034 RMK T00200010 MADISHF
3:50 AMCalm10 FEW023
SCT120
% 30.34
KPVD 030850Z AUTO 00000KT 10SM FEW023 SCT120 02/01 A3034 RMK T00200010 MADISHF
3:51 AMCalm10 FEW023
SCT120
363436 92% 30.341027.40
KPVD 030851Z AUTO 00000KT 10SM FEW023 SCT120 02/01 A3034 RMK AO2 SLP274 T00220011 58032
3:55 AMCalm10 FEW023
SCT120
% 30.34
KPVD 030855Z AUTO 00000KT 10SM FEW023 SCT120 03/01 A3034 RMK T00300010 MADISHF
4:00 AMSW 210 FEW023
BKN120
% 30.34
KPVD 030900Z AUTO 23002KT 10SM FEW023 BKN120 03/01 A3034 RMK T00300010 MADISHF
4:05 AMW 210 FEW023
BKN120
% 30.34
KPVD 030905Z AUTO 27002KT 10SM FEW023 BKN120 03/02 A3034 RMK T00300020 MADISHF
4:10 AMW 210 FEW023
BKN120
% 30.34
KPVD 030910Z AUTO 27002KT 10SM FEW023 BKN120 03/01 A3034 RMK T00300010 MADISHF
4:15 AMCalm10 FEW023
BKN120
% 30.34
KPVD 030915Z AUTO 00000KT 10SM FEW023 BKN120 03/01 A3034 RMK T00300010 MADISHF
4:20 AMCalm10 BKN120
% 30.34
KPVD 030920Z AUTO 00000KT 10SM BKN120 03/01 A3034 RMK T00300010 MADISHF
4:25 AMCalm10 FEW035
OVC120
% 30.33
KPVD 030925Z AUTO 00000KT 10SM FEW035 OVC120 03/02 A3033 RMK T00300020 MADISHF
4:30 AMCalm10 SCT035
BKN120
% 30.33
KPVD 030930Z AUTO 00000KT 10SM SCT035 BKN120 03/02 A3033 RMK T00300020 MADISHF
4:35 AMCalm10 SCT033
SCT048
OVC120
% 30.32
KPVD 030935Z AUTO 00000KT 10SM SCT033 SCT048 OVC120 03/02 A3032 RMK T00300020 MADISHF
4:40 AMSE 210 FEW033
SCT048
OVC120
% 30.31
KPVD 030940Z AUTO 14002KT 10SM FEW033 SCT048 OVC120 03/02 A3031 RMK T00300020 MADISHF
4:45 AMCalm10 FEW033
BKN048
OVC120
% 30.31
KPVD 030945Z AUTO 00000KT 10SM FEW033 BKN048 OVC120 03/02 A3031 RMK T00300020 MADISHF
4:50 AMCalm10 FEW034
BKN047
OVC120
% 30.31
KPVD 030950Z AUTO 00000KT 10SM FEW034 BKN047 OVC120 03/02 A3031 RMK T00300020 MADISHF
4:51 AMCalm10 FEW034
BKN047
OVC120
383638 93% 30.311026.20
KPVD 030951Z AUTO 00000KT 10SM FEW034 BKN047 OVC120 03/02 A3031 RMK AO2 SLP262 T00330022
4:55 AMSE 210 FEW034
OVC045
% 30.3
KPVD 030955Z AUTO 13002KT 10SM FEW034 OVC045 04/02 A3030 RMK T00400020 MADISHF
5:00 AMSSE 210 BKN040
OVC047
% 30.3
KPVD 031000Z AUTO 15002KT 10SM BKN040 OVC047 04/03 A3030 RMK T00400030 MADISHF
5:05 AMS 210 BKN040
OVC047
% 30.3
KPVD 031005Z AUTO 18002KT 10SM BKN040 OVC047 04/03 A3030 RMK T00400030 MADISHF
5:10 AMSSW 210 BKN040
OVC047
% 30.29
KPVD 031010Z AUTO 19002KT 10SM BKN040 OVC047 04/03 A3029 RMK T00400030 MADISHF
5:15 AMSSW 510 BKN038
OVC047
% 30.29
KPVD 031015Z AUTO 20004KT 10SM BKN038 OVC047 05/03 A3029 RMK T00500030 MADISHF
5:20 AMSSW 210 OVC036
% 30.29
KPVD 031020Z AUTO 20002KT 10SM OVC036 06/04 A3029 RMK T00600040 MADISHF
5:25 AMS 210 OVC036
% 30.29
KPVD 031025Z AUTO 18002KT 10SM OVC036 06/04 A3029 RMK T00600040 MADISHF
5:30 AMCalm10 OVC036
% 30.28
KPVD 031030Z AUTO 00000KT 10SM OVC036 06/04 A3028 RMK T00600040 MADISHF
5:35 AMCalm10 OVC034
% 30.28
KPVD 031035Z AUTO 00000KT 10SM OVC034 06/04 A3028 RMK T00600040 MADISHF
5:40 AMS 510 OVC034
% 30.28
KPVD 031040Z AUTO 18004KT 10SM OVC034 06/04 A3028 RMK T00600040 MADISHF
5:45 AMS 210 OVC034
% 30.27
KPVD 031045Z AUTO 17002KT 10SM OVC034 07/05 A3027 RMK T00700050 MADISHF
5:50 AMS 210 OVC035
% 30.27
KPVD 031050Z AUTO 17002KT 10SM OVC035 07/05 A3027 RMK T00700050 MADISHF
5:51 AMS 310 OVC035
454244 90% 30.2710250
KPVD 031051Z 17003KT 10SM OVC035 07/06 A3027 RMK AO2 SLP250 T00720056
5:55 AMSSE 510 OVC035
% 30.27
KPVD 031055Z AUTO 16004KT 10SM OVC035 07/06 A3027 RMK T00700060 MADISHF
6:00 AMSSE 210 OVC037
% 30.26
KPVD 031100Z AUTO 16002KT 10SM OVC037 08/06 A3026 RMK T00800060 MADISHF
6:05 AMS 210 OVC037
% 30.26
KPVD 031105Z AUTO 17002KT 10SM OVC037 08/06 A3026 RMK T00800060 MADISHF
6:10 AMS 210 OVC039
% 30.26
KPVD 031110Z AUTO 18002KT 10SM OVC039 08/07 A3026 RMK T00800070 MADISHF
6:15 AMS 510 OVC039
% 30.26
KPVD 031115Z AUTO 18004KT 10SM OVC039 08/07 A3026 RMK T00800070 MADISHF
6:20 AMS 510 OVC039
% 30.26
KPVD 031120Z AUTO 18004KT 10SM OVC039 09/07 A3026 RMK T00900070 MADISHF
6:25 AMSSW 510 OVC039
% 30.26
KPVD 031125Z AUTO 21004KT 10SM OVC039 09/08 A3026 RMK T00900080 MADISHF
6:30 AMSW 510 OVC039
% 30.26
KPVD 031130Z AUTO 23004KT 10SM OVC039 09/07 A3026 RMK T00900070 MADISHF
6:35 AMCalm10 OVC039
% 30.26
KPVD 031135Z AUTO 00000KT 10SM OVC039 08/07 A3026 RMK T00800070 MADISHF
6:40 AMWSW 210 OVC040
% 30.26
KPVD 031140Z AUTO 24002KT 10SM OVC040 08/07 A3026 RMK T00800070 MADISHF
6:45 AMCalm10 OVC040
% 30.25
KPVD 031145Z AUTO 00000KT 10SM OVC040 08/07 A3025 RMK T00800070 MADISHF
6:50 AMCalm10 OVC042
% 30.25
KPVD 031150Z AUTO 00000KT 10SM OVC042 08/07 A3025 RMK T00800070 MADISHF
6:51 AMCalm10 OVC042
474447 48 34 90% 30.251024.40
KPVD 031151Z 00000KT 10SM OVC042 08/07 A3025 RMK AO2 SLP244 T00830067 10089 20011 56030
6:55 AMS 210 OVC042
% 30.25
KPVD 031155Z AUTO 18002KT 10SM OVC042 09/07 A3025 RMK T00900070 MADISHF
7:00 AMS 610 OVC042
% 30.25
KPVD 031200Z AUTO 18005KT 10SM OVC042 09/08 A3025 RMK T00900080 MADISHF
7:05 AMSSW 810 OVC042
% 30.25
KPVD 031205Z AUTO 19007KT 10SM OVC042 09/08 A3025 RMK T00900080 MADISHF
7:10 AMS 810 OVC042
% 30.24
KPVD 031210Z AUTO 18007KT 10SM OVC042 11/09 A3024 RMK T01100090 MADISHF
7:15 AMSSW 810 OVC042
% 30.25
KPVD 031215Z AUTO 19007KT 10SM OVC042 11/09 A3025 RMK T01100090 MADISHF
7:20 AMS 1210 OVC042
% 30.24
KPVD 031220Z AUTO 18010KT 10SM OVC042 11/09 A3024 RMK T01100090 MADISHF
7:25 AMSSW 1510 OVC042
% 30.24
KPVD 031225Z AUTO 19013KT 10SM OVC042 12/09 A3024 RMK T01200090 MADISHF
7:25 AMM10 OVC042
% 30.24
KPVD 031225Z AUTO ///13KT 10SM OVC042 12/09 A3024 RMK T01200090 MADISHF
7:30 AMSSW 1310 BKN042
OVC050
% 30.24
KPVD 031230Z AUTO 19011KT 10SM BKN042 OVC050 12/09 A3024 RMK T01200090 MADISHF
7:30 AMM10 BKN042
OVC050
% 30.24
KPVD 031230Z AUTO ///11KT 10SM BKN042 OVC050 12/09 A3024 RMK T01200090 MADISHF
7:35 AMSSW 1810 BKN042
OVC055
% 30.24
KPVD 031235Z AUTO 19016KT 10SM BKN042 OVC055 12/09 A3024 RMK T01200090 MADISHF
7:35 AMM10 BKN042
OVC055
% 30.24
KPVD 031235Z AUTO ///16KT 10SM BKN042 OVC055 12/09 A3024 RMK T01200090 MADISHF
7:40 AMSSW 18G 2510 SCT043
OVC055
% 30.23
KPVD 031240Z AUTO 20016G22KT 10SM SCT043 OVC055 13/09 A3023 RMK T01300090 MADISHF
7:40 AMM10 SCT043
OVC055
% 30.23
KPVD 031240Z AUTO ///16G22KT 10SM SCT043 OVC055 13/09 A3023 RMK T01300090 MADISHF
7:45 AMSSW 010 SCT043
OVC055
% 30.23
KPVD 031245Z AUTO 190//KT 10SM SCT043 OVC055 13/09 A3023 RMK T01300090 MADISHF
7:45 AMM10 SCT043
OVC055
% 30.23
KPVD 031245Z AUTO /////KT 10SM SCT043 OVC055 13/09 A3023 RMK T01300090 MADISHF
7:50 AMSSW 2110 SCT040
OVC055
% 30.23
KPVD 031250Z AUTO 20018KT 10SM SCT040 OVC055 13/09 A3023 RMK T01300090 MADISHF
7:51 AMSSW 22G 3210 SCT040
OVC055
564956 77% 30.231023.60
KPVD 031251Z 20019G28KT 10SM SCT040 OVC055 13/09 A3023 RMK AO2 PK WND 19028/1244 SLP236 T01330094
7:55 AMSSW 1810 BKN042
OVC050
% 30.23
KPVD 031255Z AUTO 20016KT 10SM BKN042 OVC050 13/09 A3023 RMK T01300090 MADISHF
8:00 AMSSW 1710 BKN042
OVC050
% 30.22
KPVD 031300Z AUTO 20015KT 10SM BKN042 OVC050 13/09 A3022 RMK T01300090 MADISHF
8:05 AMSSW 2110 BKN044
OVC050
% 30.22
KPVD 031305Z AUTO 20018KT 10SM BKN044 OVC050 14/09 A3022 RMK T01400090 MADISHF
8:10 AMSSW 2310 BKN044
OVC050
% 30.22
KPVD 031310Z AUTO 19020KT 10SM BKN044 OVC050 14/09 A3022 RMK T01400090 MADISHF
8:15 AMSSW 2110 BKN044
OVC055
% 30.22
KPVD 031315Z AUTO 20018KT 10SM BKN044 OVC055 14/09 A3022 RMK T01400090 MADISHF
8:20 AMSSW 2410 BKN044
OVC055
% 30.22
KPVD 031320Z AUTO 20021KT 10SM BKN044 OVC055 14/09 A3022 RMK T01400090 MADISHF
8:25 AMSSW 23G 3010 BKN044
OVC055
% 30.22
KPVD 031325Z AUTO 21020G26KT 10SM BKN044 OVC055 14/09 A3022 RMK T01400090 MADISHF
8:25 AMM10 BKN044
OVC055
% 30.22
KPVD 031325Z AUTO ///20G26KT 10SM BKN044 OVC055 14/09 A3022 RMK T01400090 MADISHF
8:30 AMSSW 1810 BKN044
OVC055
% 30.22
KPVD 031330Z AUTO 21016KT 10SM BKN044 OVC055 14/09 A3022 RMK T01400090 MADISHF
8:30 AMM10 BKN044
OVC055
% 30.22
KPVD 031330Z AUTO ///16KT 10SM BKN044 OVC055 14/09 A3022 RMK T01400090 MADISHF
8:35 AMSSW 2210 BKN044
OVC055
% 30.22
KPVD 031335Z AUTO 20019KT 10SM BKN044 OVC055 14/09 A3022 RMK T01400090 MADISHF
8:35 AMM10 BKN044
OVC055
% 30.22
KPVD 031335Z AUTO ///19KT 10SM BKN044 OVC055 14/09 A3022 RMK T01400090 MADISHF
8:40 AMSSW 20G 3110 BKN044
OVC055
-RA % 30.22
KPVD 031340Z AUTO 21017G27KT 10SM -RA BKN044 OVC055 14/09 A3022 RMK T01400090 MADISHF
8:45 AMSSW 21G 2510 OVC046
-RA % 30.22
KPVD 031345Z AUTO 21018G22KT 10SM -RA OVC046 14/09 A3022 RMK T01400090 MADISHF
8:50 AMSSW 22G 2610 OVC045
-RA % 30.21
KPVD 031350Z AUTO 21019G23KT 10SM -RA OVC045 14/09 A3021 RMK T01400090 MADISHF
8:51 AMSSW 22G 3010 OVC045
-RA574957 74% 30.211023T
KPVD 031351Z 20019G26KT 10SM -RA OVC045 14/09 A3021 RMK AO2 PK WND 19032/1323 RAB37 SLP230 P0000 T01390094
8:55 AMSSW 2510 OVC047
% 30.21
KPVD 031355Z AUTO 20022KT 10SM OVC047 14/09 A3021 RMK T01400090 MADISHF
9:00 AMSSW 1710 OVC049
-RA % 30.2
KPVD 031400Z AUTO 21015KT 10SM -RA OVC049 14/09 A3020 RMK T01400090 MADISHF
9:00 AMM10 OVC049
-RA % 30.2
KPVD 031400Z AUTO ///15KT 10SM -RA OVC049 14/09 A3020 RMK T01400090 MADISHF
9:05 AMSSW 21G 2810 OVC049
-RA % 30.2
KPVD 031405Z AUTO 20018G24KT 10SM -RA OVC049 14/09 A3020 RMK T01400090 MADISHF
9:05 AMM10 OVC049
-RA % 30.2
KPVD 031405Z AUTO ///18G24KT 10SM -RA OVC049 14/09 A3020 RMK T01400090 MADISHF
9:10 AMSSW 2310 OVC049
% 30.2
KPVD 031410Z AUTO 20020KT 10SM OVC049 14/09 A3020 RMK T01400090 MADISHF
9:10 AMM10 OVC049
% 30.2
KPVD 031410Z AUTO ///20KT 10SM OVC049 14/09 A3020 RMK T01400090 MADISHF
9:15 AMSSW 25G 3310 OVC049
% 30.19
KPVD 031415Z AUTO 21022G29KT 10SM OVC049 14/09 A3019 RMK T01400090 MADISHF
9:15 AMM10 OVC049
% 30.19
KPVD 031415Z AUTO ///22G29KT 10SM OVC049 14/09 A3019 RMK T01400090 MADISHF
9:20 AMSSW 2310 OVC050
% 30.18
KPVD 031420Z AUTO 20020KT 10SM OVC050 14/09 A3018 RMK T01400090 MADISHF
9:20 AMM10 OVC050
% 30.18
KPVD 031420Z AUTO ///20KT 10SM OVC050 14/09 A3018 RMK T01400090 MADISHF
9:25 AMM10 OVC050
% 30.19
KPVD 031425Z AUTO ///22G28KT 10SM OVC050 14/09 A3019 RMK T01400090 MADISHF
9:30 AMSSW 23G 2810 OVC049
-RA % 30.18
KPVD 031430Z AUTO 21020G24KT 10SM -RA OVC049 14/10 A3018 RMK T01400100 MADISHF
9:30 AMM10 OVC049
-RA % 30.18
KPVD 031430Z AUTO ///20G24KT 10SM -RA OVC049 14/10 A3018 RMK T01400100 MADISHF
9:35 AMM10 OVC049
-RA % 30.17
KPVD 031435Z AUTO ///20KT 10SM -RA OVC049 14/10 A3017 RMK T01400100 MADISHF
9:40 AMSSW 24G 3010 OVC049
% 30.17
KPVD 031440Z AUTO 21021G26KT 10SM OVC049 14/10 A3017 RMK T01400100 MADISHF
9:40 AMM10 OVC049
% 30.17
KPVD 031440Z AUTO ///21G26KT 10SM OVC049 14/10 A3017 RMK T01400100 MADISHF
9:45 AMM10 OVC048
% 30.17
KPVD 031445Z AUTO ///21G30KT 10SM OVC048 15/10 A3017 RMK T01500100 MADISHF
9:50 AMM10 OVC045
% 30.17
KPVD 031450Z AUTO ///19KT 10SM OVC045 14/10 A3017 RMK T01400100 MADISHF
9:51 AMSSW 23G 3710 OVC045
585058 75% 30.171021.5TT
KPVD 031451Z 20020G32KT 10SM OVC045 14/10 A3017 RMK AO2 PK WND 19034/1423 RAE10B28E38 SLP215 P0000 60000 T01440100 58029
9:55 AMM10 OVC048
% 30.16
KPVD 031455Z AUTO ///18KT 10SM OVC048 14/09 A3016 RMK T01400090 MADISHF
10:00 AMSSW 2510 OVC048
% 30.16
KPVD 031500Z AUTO 20022KT 10SM OVC048 15/10 A3016 RMK T01500100 MADISHF
10:00 AMM10 OVC048
% 30.16
KPVD 031500Z AUTO ///22KT 10SM OVC048 15/10 A3016 RMK T01500100 MADISHF
10:05 AMSSW 22G 3010 BKN048
OVC065
% 30.16
KPVD 031505Z AUTO 20019G26KT 10SM BKN048 OVC065 15/10 A3016 RMK T01500100 MADISHF
10:05 AMM10 BKN048
OVC065
% 30.16
KPVD 031505Z AUTO ///19G26KT 10SM BKN048 OVC065 15/10 A3016 RMK T01500100 MADISHF
10:10 AMSSW 24G 3110 FEW041
BKN048
OVC065
-RA % 30.16
KPVD 031510Z AUTO 21021G27KT 10SM -RA FEW041 BKN048 OVC065 15/10 A3016 RMK T01500100 MADISHF
10:10 AMM10 FEW041
BKN048
OVC065
-RA % 30.16
KPVD 031510Z AUTO ///21G27KT 10SM -RA FEW041 BKN048 OVC065 15/10 A3016 RMK T01500100 MADISHF
10:15 AMM9 FEW041
BKN048
OVC075
-RA % 30.15
KPVD 031515Z AUTO ///22G30KT 9SM -RA FEW041 BKN048 OVC075 14/10 A3015 RMK T01400100 MADISHF
10:20 AMSSW 0G 379 SCT041
BKN048
OVC090
-RA % 30.15
KPVD 031520Z AUTO 200//G32KT 9SM -RA SCT041 BKN048 OVC090 14/11 A3015 RMK T01400110 MADISHF
10:20 AMM9 SCT041
BKN048
OVC090
-RA % 30.15
KPVD 031520Z AUTO /////G32KT 9SM -RA SCT041 BKN048 OVC090 14/11 A3015 RMK T01400110 MADISHF
10:25 AMM10 BKN044
BKN060
OVC075
-RA % 30.15
KPVD 031525Z AUTO ///22KT 10SM -RA BKN044 BKN060 OVC075 14/11 A3015 RMK T01400110 MADISHF
10:30 AMSSW 23G 3010 BKN042
BKN055
OVC070
-RA % 30.14
KPVD 031530Z AUTO 21020G26KT 10SM -RA BKN042 BKN055 OVC070 14/11 A3014 RMK T01400110 MADISHF
10:30 AMM10 BKN042
BKN055
OVC070
-RA % 30.14
KPVD 031530Z AUTO ///20G26KT 10SM -RA BKN042 BKN055 OVC070 14/11 A3014 RMK T01400110 MADISHF
10:35 AMM10 BKN040
BKN060
OVC080
-RA % 30.13
KPVD 031535Z AUTO ///18G22KT 10SM -RA BKN040 BKN060 OVC080 14/11 A3013 RMK T01400110 MADISHF
10:40 AMM10 BKN040
BKN060
OVC080
-RA % 30.13
KPVD 031540Z AUTO ///21KT 10SM -RA BKN040 BKN060 OVC080 14/11 A3013 RMK T01400110 MADISHF
10:40 AMM10 BKN040
BKN060
OVC080
-RA % 30.13
KPVD 031540Z AUTO /////KT 10SM -RA BKN040 BKN060 OVC080 14/11 A3013 RMK T01400110 MADISHF
10:45 AMM10 BKN040
BKN060
OVC080
-RA % 30.120.01
KPVD 031545Z AUTO ///19KT 10SM -RA BKN040 BKN060 OVC080 14/11 A3012 RMK P0001 T01400110 MADISHF
10:50 AMSSW 23G 339 BKN040
BKN050
OVC080
-RA % 30.120.01
KPVD 031550Z AUTO 21020G29KT 9SM -RA BKN040 BKN050 OVC080 14/11 A3012 RMK P0001 T01400110 MADISHF
10:50 AMM9 BKN040
BKN050
OVC080
-RA % 30.120.01
KPVD 031550Z AUTO ///20G29KT 9SM -RA BKN040 BKN050 OVC080 14/11 A3012 RMK P0001 T01400110 MADISHF
10:51 AMSSW 29G 377 BKN040
BKN050
OVC080
-RA575157 81% 30.121019.90.01
KPVD 031551Z 20025G32KT 7SM -RA BKN040 BKN050 OVC080 14/11 A3012 RMK AO2 PK WND 21033/1501 RAB08 SLP199 P0001 T01390106
10:55 AMSSW 256 BKN040
BKN050
OVC080
-RA BR % 30.12
KPVD 031555Z AUTO 20022KT 6SM -RA BR BKN040 BKN050 OVC080 14/11 A3012 RMK T01400110 MADISHF
11:00 AMSSW 21G 319 BKN040
BKN050
OVC080
-RA % 30.11
KPVD 031600Z AUTO 20018G27KT 9SM -RA BKN040 BKN050 OVC080 14/11 A3011 RMK T01400110 MADISHF
11:00 AMM9 BKN040
BKN050
OVC080
-RA % 30.11
KPVD 031600Z AUTO ///18G27KT 9SM -RA BKN040 BKN050 OVC080 14/11 A3011 RMK T01400110 MADISHF
11:05 AMSSW 2510 FEW030
BKN040
OVC085
-RA % 30.11
KPVD 031605Z AUTO 20022KT 10SM -RA FEW030 BKN040 OVC085 14/11 A3011 RMK T01400110 MADISHF
11:05 AMM10 FEW030
BKN040
OVC085
-RA % 30.11
KPVD 031605Z AUTO ///22KT 10SM -RA FEW030 BKN040 OVC085 14/11 A3011 RMK T01400110 MADISHF
11:05 AMM10 FEW030
BKN040
OVC085
-RA % 30.11
KPVD 031605Z AUTO /////KT 10SM -RA FEW030 BKN040 OVC085 14/11 A3011 RMK T01400110 MADISHF
11:10 AMSSW 26G 339 FEW030
BKN040
OVC085
-RA % 30.1
KPVD 031610Z AUTO 20023G29KT 9SM -RA FEW030 BKN040 OVC085 14/11 A3010 RMK T01400110 MADISHF
11:10 AMM9 FEW030
BKN040
OVC085
-RA % 30.1
KPVD 031610Z AUTO ///23G29KT 9SM -RA FEW030 BKN040 OVC085 14/11 A3010 RMK T01400110 MADISHF
11:10 AMM9 FEW030
BKN040
OVC085
-RA % 30.1
KPVD 031610Z AUTO /////G29KT 9SM -RA FEW030 BKN040 OVC085 14/11 A3010 RMK T01400110 MADISHF
11:15 AMM8 SCT030
BKN040
OVC080
-RA % 30.09
KPVD 031615Z AUTO ///23G32KT 8SM -RA SCT030 BKN040 OVC080 14/11 A3009 RMK T01400110 MADISHF
11:15 AMM8 SCT030
BKN040
OVC080
-RA % 30.09
KPVD 031615Z AUTO /////G32KT 8SM -RA SCT030 BKN040 OVC080 14/11 A3009 RMK T01400110 MADISHF
11:20 AMM7 SCT028
BKN040
OVC080
-RA % 30.09
KPVD 031620Z AUTO ///22KT 7SM -RA SCT028 BKN040 OVC080 14/11 A3009 RMK T01400110 MADISHF
11:20 AMM7 SCT028
BKN040
OVC080
-RA % 30.09
KPVD 031620Z AUTO /////KT 7SM -RA SCT028 BKN040 OVC080 14/11 A3009 RMK T01400110 MADISHF
11:25 AMSSW 28G 375 BKN025
BKN045
OVC080
-RA BR575257 83% 30.090.01
KPVD 031625Z 20024G32KT 5SM -RA BR BKN025 BKN045 OVC080 14/11 A3009 RMK AO2 PK WND 19035/1608 P0001 T01390111
11:25 AMM5 BKN025
BKN045
OVC080
-RA BR % 30.090.01
KPVD 031625Z AUTO ///23KT 5SM -RA BR BKN025 BKN045 OVC080 14/11 A3009 RMK P0001 T01400110 MADISHF
11:25 AMSSW 05 BKN025
BKN045
OVC080
-RA BR % 30.090.01
KPVD 031625Z AUTO 200//KT 5SM -RA BR BKN025 BKN045 OVC080 14/11 A3009 RMK P0001 T01400110 MADISHF
11:25 AMM5 BKN025
BKN045
OVC080
-RA BR % 30.090.01
KPVD 031625Z AUTO /////KT 5SM -RA BR BKN025 BKN045 OVC080 14/11 A3009 RMK P0001 T01400110 MADISHF
11:30 AMSSW 22G 265 BKN025
BKN045
OVC080
-RA BR % 30.080.01
KPVD 031630Z AUTO 20019G23KT 5SM -RA BR BKN025 BKN045 OVC080 13/11 A3008 RMK P0001 T01300110 MADISHF
11:30 AMM5 BKN025
BKN045
OVC080
-RA BR % 30.080.01
KPVD 031630Z AUTO ///19G23KT 5SM -RA BR BKN025 BKN045 OVC080 13/11 A3008 RMK P0001 T01300110 MADISHF
11:35 AMSSW 21G 265 BKN025
BKN045
OVC080
-RA BR % 30.080.01
KPVD 031635Z AUTO 20018G23KT 5SM -RA BR BKN025 BKN045 OVC080 13/11 A3008 RMK P0001 T01300110 MADISHF
11:35 AMM5 BKN025
BKN045
OVC080
-RA BR % 30.080.01
KPVD 031635Z AUTO ///18G23KT 5SM -RA BR BKN025 BKN045 OVC080 13/11 A3008 RMK P0001 T01300110 MADISHF
11:40 AMSSW 255 BKN025
BKN045
OVC080
-RA BR % 30.080.02
KPVD 031640Z AUTO 21022KT 5SM -RA BR BKN025 BKN045 OVC080 13/11 A3008 RMK P0002 T01300110 MADISHF
11:40 AMM5 BKN025
BKN045
OVC080
-RA BR % 30.080.02
KPVD 031640Z AUTO /////KT 5SM -RA BR BKN025 BKN045 OVC080 13/11 A3008 RMK P0002 T01300110 MADISHF
11:45 AMSSW 25G 335 BKN025
BKN045
OVC080
-RA BR % 30.080.03
KPVD 031645Z AUTO 20022G29KT 5SM -RA BR BKN025 BKN045 OVC080 13/11 A3008 RMK P0003 T01300110 MADISHF
11:45 AMM5 BKN025
BKN045
OVC080
-RA BR % 30.080.03
KPVD 031645Z AUTO /////G29KT 5SM -RA BR BKN025 BKN045 OVC080 13/11 A3008 RMK P0003 T01300110 MADISHF
11:50 AMSSW 225 BKN020
OVC040
-RA BR % 30.070.03
KPVD 031650Z AUTO 20019KT 5SM -RA BR BKN020 OVC040 13/11 A3007 RMK P0003 T01300110 MADISHF
11:51 AMSSW 23G 345 BKN020
OVC040
-RA BR565256 87% 30.071018.30.03
KPVD 031651Z 20020G30KT 5SM -RA BR BKN020 OVC040 13/11 A3007 RMK AO2 PK WND 19035/1608 SLP183 P0003 T01330111
11:55 AMM7 OVC023
-RA % 30.07
KPVD 031655Z AUTO ///20G24KT 7SM -RA OVC023 13/11 A3007 RMK T01300110 MADISHF
12:05 PMSSW 214 OVC023
-RA BR % 30.060.01
KPVD 031705Z AUTO 20018KT 4SM -RA BR OVC023 13/12 A3006 RMK P0001 T01300120 MADISHF
12:05 PMM4 OVC023
-RA BR % 30.060.01
KPVD 031705Z AUTO ///18KT 4SM -RA BR OVC023 13/12 A3006 RMK P0001 T01300120 MADISHF
12:10 PMSSW 256 BKN021
OVC026
-RA BR % 30.050.02
KPVD 031710Z AUTO 20022KT 6SM -RA BR BKN021 OVC026 13/12 A3005 RMK P0002 T01300120 MADISHF
12:15 PMSSW 257 SCT017
BKN021
OVC028
-RA % 30.050.02
KPVD 031715Z AUTO 20022KT 7SM -RA SCT017 BKN021 OVC028 13/12 A3005 RMK P0002 T01300120 MADISHF
12:20 PMSSW 23G 326 BKN020
BKN027
OVC039
-RA BR % 30.050.02
KPVD 031720Z AUTO 20020G28KT 6SM -RA BR BKN020 BKN027 OVC039 13/12 A3005 RMK P0002 T01300120 MADISHF
12:25 PMSSW 25G 367 BKN019
OVC028
-RA % 30.040.03
KPVD 031725Z AUTO 20022G31KT 7SM -RA BKN019 OVC028 13/12 A3004 RMK P0003 T01300120 MADISHF
12:25 PMM7 BKN019
OVC028
-RA % 30.040.03
KPVD 031725Z AUTO ///22G31KT 7SM -RA BKN019 OVC028 13/12 A3004 RMK P0003 T01300120 MADISHF
12:30 PMSSW 256 BKN018
OVC023
-RA BR % 30.040.03
KPVD 031730Z AUTO 20022KT 6SM -RA BR BKN018 OVC023 13/12 A3004 RMK P0003 T01300120 MADISHF
12:30 PMM6 BKN018
OVC023
-RA BR % 30.040.03
KPVD 031730Z AUTO ///22KT 6SM -RA BR BKN018 OVC023 13/12 A3004 RMK P0003 T01300120 MADISHF
12:35 PMSSW 225 SCT015
BKN020
OVC026
RA BR % 30.030.04
KPVD 031735Z AUTO 20019KT 5SM RA BR SCT015 BKN020 OVC026 13/12 A3003 RMK P0004 T01300120 MADISHF
12:35 PMM5 SCT015
BKN020
OVC026
RA BR % 30.030.04
KPVD 031735Z AUTO ///19KT 5SM RA BR SCT015 BKN020 OVC026 13/12 A3003 RMK P0004 T01300120 MADISHF
12:40 PMSSW 245 BKN019
OVC026
RA BR % 30.030.05
KPVD 031740Z AUTO 20021KT 5SM RA BR BKN019 OVC026 13/12 A3003 RMK P0005 T01300120 MADISHF
12:40 PMM5 BKN019
OVC026
RA BR % 30.030.05
KPVD 031740Z AUTO ///21KT 5SM RA BR BKN019 OVC026 13/12 A3003 RMK P0005 T01300120 MADISHF
12:45 PMSSW 254 SCT015
OVC020
-RA BR % 30.030.06
KPVD 031745Z AUTO 20022KT 4SM -RA BR SCT015 OVC020 13/12 A3003 RMK P0006 T01300120 MADISHF
12:45 PMM4 SCT015
OVC020
-RA BR % 30.030.06
KPVD 031745Z AUTO ///22KT 4SM -RA BR SCT015 OVC020 13/12 A3003 RMK P0006 T01300120 MADISHF
12:50 PMSSW 264 SCT015
OVC020
RA BR % 30.030.06
KPVD 031750Z AUTO 20023KT 4SM RA BR SCT015 OVC020 13/12 A3003 RMK P0006 T01300120 MADISHF
12:50 PMM4 SCT015
OVC020
RA BR % 30.030.06
KPVD 031750Z AUTO ///23KT 4SM RA BR SCT015 OVC020 13/12 A3003 RMK P0006 T01300120 MADISHF
12:51 PMSSW 24G 414 SCT015
OVC020
RA BR565356 59 47 90% 30.021016.70.06
KPVD 031751Z 20021G36KT 4SM RA BR SCT015 OVC020 13/12 A3002 RMK AO2 PK WND 18036/1748 SLP167 P0006 60010 T01330117 10150 20083 58047
12:55 PMM4 BKN017
OVC025
-RA BR % 30.020.01
KPVD 031755Z AUTO ///22G32KT 4SM -RA BR BKN017 OVC025 13/12 A3002 RMK P0001 T01300120 MADISHF
1:00 PMM5 BKN017
OVC025
-RA BR % 30.020.01
KPVD 031800Z AUTO ///22G29KT 5SM -RA BR BKN017 OVC025 13/12 A3002 RMK P0001 T01300120 MADISHF
1:05 PMM5 FEW013
BKN017
OVC024
-RA BR % 30.010.02
KPVD 031805Z AUTO ///23KT 5SM -RA BR FEW013 BKN017 OVC024 13/12 A3001 RMK P0002 T01300120 MADISHF
1:10 PMSSW 25G 325 BKN017
OVC024
-RA BR % 300.02
KPVD 031810Z AUTO 20022G28KT 5SM -RA BR BKN017 OVC024 13/12 A3000 RMK P0002 T01300120 MADISHF
1:10 PMM5 BKN017
OVC024
-RA BR % 300.02
KPVD 031810Z AUTO ///22G28KT 5SM -RA BR BKN017 OVC024 13/12 A3000 RMK P0002 T01300120 MADISHF
1:15 PMSSW 255 FEW013
BKN017
OVC024
-RA BR % 300.03
KPVD 031815Z AUTO 19022KT 5SM -RA BR FEW013 BKN017 OVC024 13/12 A3000 RMK P0003 T01300120 MADISHF
1:15 PMM5 FEW013
BKN017
OVC024
-RA BR % 300.03
KPVD 031815Z AUTO ///22KT 5SM -RA BR FEW013 BKN017 OVC024 13/12 A3000 RMK P0003 T01300120 MADISHF
1:20 PMSSW 28G 344 BKN017
OVC024
RA BR % 300.04
KPVD 031820Z AUTO 20024G30KT 4SM RA BR BKN017 OVC024 13/12 A3000 RMK P0004 T01300120 MADISHF
1:20 PMM4 BKN017
OVC024
RA BR % 300.04
KPVD 031820Z AUTO /////G30KT 4SM RA BR BKN017 OVC024 13/12 A3000 RMK P0004 T01300120 MADISHF
1:25 PMSSW 0G 404 BKN015
OVC024
-RA BR % 300.05
KPVD 031825Z AUTO 200//G35KT 4SM -RA BR BKN015 OVC024 13/12 A3000 RMK P0005 T01300120 MADISHF
1:25 PMM4 BKN015
OVC024
-RA BR % 300.05
KPVD 031825Z AUTO /////G35KT 4SM -RA BR BKN015 OVC024 13/12 A3000 RMK P0005 T01300120 MADISHF
1:30 PMSSW 244 BKN015
BKN022
OVC027
-RA BR % 29.990.05
KPVD 031830Z AUTO 19021KT 4SM -RA BR BKN015 BKN022 OVC027 13/12 A2999 RMK P0005 T01300120 MADISHF
1:35 PMSSW 28G 434 BKN015
OVC025
RA BR % 29.990.06
KPVD 031835Z AUTO 20024G37KT 4SM RA BR BKN015 OVC025 13/12 A2999 RMK P0006 T01300120 MADISHF
1:35 PMM4 BKN015
OVC025
RA BR % 29.990.06
KPVD 031835Z AUTO /////G37KT 4SM RA BR BKN015 OVC025 13/12 A2999 RMK P0006 T01300120 MADISHF
1:40 PMM4 BKN016
BKN023
OVC030
RA BR % 29.980.08
KPVD 031840Z AUTO ///23KT 4SM RA BR BKN016 BKN023 OVC030 13/12 A2998 RMK P0008 T01300120 MADISHF
1:45 PMM5 SCT013
BKN018
OVC026
-RA BR % 29.980.08
KPVD 031845Z AUTO ///23G29KT 5SM -RA BR SCT013 BKN018 OVC026 13/12 A2998 RMK P0008 T01300120 MADISHF
1:50 PMSSW 28G 403 SCT012
BKN015
OVC024
RA BR % 29.970.09
KPVD 031850Z AUTO 20024G35KT 3SM RA BR SCT012 BKN015 OVC024 13/12 A2997 RMK P0009 T01300120 MADISHF
1:50 PMM3 SCT012
BKN015
OVC024
RA BR % 29.970.09
KPVD 031850Z AUTO /////G35KT 3SM RA BR SCT012 BKN015 OVC024 13/12 A2997 RMK P0009 T01300120 MADISHF
1:51 PMSSW 31G 413 SCT012
BKN015
OVC024
RA BR565456 93% 29.971014.90.09
KPVD 031851Z 20027G36KT 3SM RA BR SCT012 BKN015 OVC024 13/12 A2997 RMK AO2 PK WND 20038/1835 SLP149 P0009 T01330122
1:55 PMSSW 03 SCT013
BKN019
OVC026
RA BR % 29.970.01
KPVD 031855Z AUTO 200//KT 3SM RA BR SCT013 BKN019 OVC026 13/12 A2997 RMK P0001 T01300120 MADISHF
2:00 PMSSW 25G 393 SCT013
OVC019
RA BR % 29.960.02
KPVD 031900Z AUTO 19022G34KT 3SM RA BR SCT013 OVC019 13/12 A2996 RMK P0002 T01300120 MADISHF
2:00 PMM3 SCT013
OVC019
RA BR % 29.960.02
KPVD 031900Z AUTO ///22G34KT 3SM RA BR SCT013 OVC019 13/12 A2996 RMK P0002 T01300120 MADISHF
2:05 PMSSW 263 SCT012
OVC019
RA BR % 29.960.02
KPVD 031905Z AUTO 20023KT 3SM RA BR SCT012 OVC019 13/12 A2996 RMK P0002 T01300120 MADISHF
2:05 PMM3 SCT012
OVC019
RA BR % 29.960.02
KPVD 031905Z AUTO ///23KT 3SM RA BR SCT012 OVC019 13/12 A2996 RMK P0002 T01300120 MADISHF
2:10 PMSSW 25G 363 BKN015
OVC019
RA BR % 29.960.04
KPVD 031910Z AUTO 20022G31KT 3SM RA BR BKN015 OVC019 13/12 A2996 RMK P0004 T01300120 MADISHF
2:10 PMM3 BKN015
OVC019
RA BR % 29.960.04
KPVD 031910Z AUTO ///22G31KT 3SM RA BR BKN015 OVC019 13/12 A2996 RMK P0004 T01300120 MADISHF
2:12 PMSSW 28G 362.5 BKN013
BKN019
OVC024
RA BR565456 93% 29.960.04
KPVD 031912Z 20024G31KT 2 1/2SM RA BR BKN013 BKN019 OVC024 13/12 A2996 RMK AO2 PK WND 20036/1901 P0004 T01330122
2:15 PMSSW 26G 402.5 BKN013
BKN019
OVC024
RA BR % 29.960.05
KPVD 031915Z AUTO 20023G35KT 2 1/2SM RA BR BKN013 BKN019 OVC024 13/12 A2996 RMK P0005 T01300120 MADISHF
2:15 PMM2.5 BKN013
BKN019
OVC024
RA BR % 29.960.05
KPVD 031915Z AUTO ///23G35KT 2 1/2SM RA BR BKN013 BKN019 OVC024 13/12 A2996 RMK P0005 T01300120 MADISHF
2:20 PMSSW 28G 342.5 BKN013
BKN019
OVC024
RA BR % 29.950.07
KPVD 031920Z AUTO 20024G30KT 2 1/2SM RA BR BKN013 BKN019 OVC024 13/12 A2995 RMK P0007 T01300120 MADISHF
2:20 PMM2.5 BKN013
BKN019
OVC024
RA BR % 29.950.07
KPVD 031920Z AUTO /////G30KT 2 1/2SM RA BR BKN013 BKN019 OVC024 13/12 A2995 RMK P0007 T01300120 MADISHF
2:25 PMSSW 0G 442 BKN013
BKN019
OVC024
RA BR % 29.950.07
KPVD 031925Z AUTO 200//G38KT 2SM RA BR BKN013 BKN019 OVC024 13/13 A2995 RMK P0007 T01300130 MADISHF
2:25 PMM2 BKN013
BKN019
OVC024
RA BR % 29.950.07
KPVD 031925Z AUTO /////G38KT 2SM RA BR BKN013 BKN019 OVC024 13/13 A2995 RMK P0007 T01300130 MADISHF
2:30 PMSSW 26G 342 BKN013
BKN019
OVC024
RA BR % 29.950.1
KPVD 031930Z AUTO 20023G30KT 2SM RA BR BKN013 BKN019 OVC024 13/13 A2995 RMK P0010 T01300130 MADISHF
2:30 PMM2 BKN013
BKN019
OVC024
RA BR % 29.950.1
KPVD 031930Z AUTO ///23G30KT 2SM RA BR BKN013 BKN019 OVC024 13/13 A2995 RMK P0010 T01300130 MADISHF
2:35 PMM2.5 BKN012
BKN020
OVC025
RA BR % 29.950.11
KPVD 031935Z AUTO ///23KT 2 1/2SM RA BR BKN012 BKN020 OVC025 13/13 A2995 RMK P0011 T01300130 MADISHF
2:40 PMM2 BKN012
BKN020
OVC025
RA BR % 29.940.12
KPVD 031940Z AUTO /////G33KT 2SM RA BR BKN012 BKN020 OVC025 13/13 A2994 RMK P0012 T01300130 MADISHF
2:45 PMM2 BKN012
BKN015
OVC025
RA BR % 29.940.13
KPVD 031945Z AUTO ///23KT 2SM RA BR BKN012 BKN015 OVC025 13/13 A2994 RMK P0013 T01300130 MADISHF
2:50 PMSSW 252 BKN010
BKN018
OVC025
RA BR % 29.940.15
KPVD 031950Z AUTO 21022KT 2SM RA BR BKN010 BKN018 OVC025 13/13 A2994 RMK P0015 T01300130 MADISHF
2:50 PMM2 BKN010
BKN018
OVC025
RA BR % 29.940.15
KPVD 031950Z AUTO ///22KT 2SM RA BR BKN010 BKN018 OVC025 13/13 A2994 RMK P0015 T01300130 MADISHF
2:51 PMSSW 24G 362 BKN010
BKN018
OVC025
RA BR565656 100% 29.941013.90.15
KPVD 031951Z 21021G31KT 2SM RA BR BKN010 BKN018 OVC025 13/13 A2994 RMK AO2 PK WND 21041/1924 SLP139 P0015 T01330133
2:55 PMM2.5 BKN013
OVC025
-RA BR % 29.940.01
KPVD 031955Z AUTO ///20KT 2 1/2SM -RA BR BKN013 OVC025 13/13 A2994 RMK P0001 T01300130 MADISHF
3:00 PMSSW 25G 372.5 BKN013
OVC021
RA BR % 29.940.02
KPVD 032000Z AUTO 21022G32KT 2 1/2SM RA BR BKN013 OVC021 14/13 A2994 RMK P0002 T01400130 MADISHF
3:00 PMM2.5 BKN013
OVC021
RA BR % 29.940.02
KPVD 032000Z AUTO ///22G32KT 2 1/2SM RA BR BKN013 OVC021 14/13 A2994 RMK P0002 T01400130 MADISHF
3:05 PMSSW 26G 342.5 BKN014
OVC021
RA BR % 29.940.03
KPVD 032005Z AUTO 20023G30KT 2 1/2SM RA BR BKN014 OVC021 14/13 A2994 RMK P0003 T01400130 MADISHF
3:05 PMM2.5 BKN014
OVC021
RA BR % 29.940.03
KPVD 032005Z AUTO ///23G30KT 2 1/2SM RA BR BKN014 OVC021 14/13 A2994 RMK P0003 T01400130 MADISHF
3:10 PMSSW 262.5 BKN012
OVC021
RA BR % 29.930.04
KPVD 032010Z AUTO 21023KT 2 1/2SM RA BR BKN012 OVC021 14/13 A2993 RMK P0004 T01400130 MADISHF
3:10 PMM2.5 BKN012
OVC021
RA BR % 29.930.04
KPVD 032010Z AUTO ///23KT 2 1/2SM RA BR BKN012 OVC021 14/13 A2993 RMK P0004 T01400130 MADISHF
3:15 PMSSW 23G 282.5 BKN012
OVC021
RA BR % 29.930.05
KPVD 032015Z AUTO 21020G24KT 2 1/2SM RA BR BKN012 OVC021 13/13 A2993 RMK P0005 T01300130 MADISHF
3:15 PMM2.5 BKN012
OVC021
RA BR % 29.930.05
KPVD 032015Z AUTO ///20G24KT 2 1/2SM RA BR BKN012 OVC021 13/13 A2993 RMK P0005 T01300130 MADISHF
3:20 PMSSW 242.5 BKN012
OVC021
RA BR % 29.930.07
KPVD 032020Z AUTO 21021KT 2 1/2SM RA BR BKN012 OVC021 13/13 A2993 RMK P0007 T01300130 MADISHF
3:20 PMM2.5 BKN012
OVC021
RA BR % 29.930.07
KPVD 032020Z AUTO ///21KT 2 1/2SM RA BR BKN012 OVC021 13/13 A2993 RMK P0007 T01300130 MADISHF
3:25 PMSSW 202.5 BKN012
OVC021
RA BR % 29.930.08
KPVD 032025Z AUTO 21017KT 2 1/2SM RA BR BKN012 OVC021 13/13 A2993 RMK P0008 T01300130 MADISHF
3:25 PMM2.5 BKN012
OVC021
RA BR % 29.930.08
KPVD 032025Z AUTO ///17KT 2 1/2SM RA BR BKN012 OVC021 13/13 A2993 RMK P0008 T01300130 MADISHF
3:30 PMSSW 242.5 BKN012
OVC021
RA BR % 29.920.1
KPVD 032030Z AUTO 21021KT 2 1/2SM RA BR BKN012 OVC021 13/13 A2992 RMK P0010 T01300130 MADISHF
3:30 PMM2.5 BKN012
OVC021
RA BR % 29.920.1
KPVD 032030Z AUTO ///21KT 2 1/2SM RA BR BKN012 OVC021 13/13 A2992 RMK P0010 T01300130 MADISHF
3:35 PMSSW 22G 282.5 BKN012
OVC021
RA BR % 29.920.11
KPVD 032035Z AUTO 21019G24KT 2 1/2SM RA BR BKN012 OVC021 13/13 A2992 RMK P0011 T01300130 MADISHF
3:35 PMM2.5 BKN012
OVC021
RA BR % 29.920.11
KPVD 032035Z AUTO ///19G24KT 2 1/2SM RA BR BKN012 OVC021 13/13 A2992 RMK P0011 T01300130 MADISHF
3:40 PMM2.5 BKN012
OVC021
-RA BR % 29.920.12
KPVD 032040Z AUTO ///18G22KT 2 1/2SM -RA BR BKN012 OVC021 13/13 A2992 RMK P0012 T01300130 MADISHF
3:45 PMM2.5 BKN012
OVC021
-RA BR % 29.920.13
KPVD 032045Z AUTO ///18KT 2 1/2SM -RA BR BKN012 OVC021 13/13 A2992 RMK P0013 T01300130 MADISHF
3:50 PMSSW 212.5 BKN012
OVC021
-RA BR % 29.910.14
KPVD 032050Z AUTO 21018KT 2 1/2SM -RA BR BKN012 OVC021 13/13 A2991 RMK P0014 T01300130 MADISHF
3:50 PMM2.5 BKN012
OVC021
-RA BR % 29.910.14
KPVD 032050Z AUTO ///18KT 2 1/2SM -RA BR BKN012 OVC021 13/13 A2991 RMK P0014 T01300130 MADISHF
3:51 PMSSW 18G 252.5 BKN012
OVC021
-RA BR565656 100% 29.911012.90.140.38
KPVD 032051Z 21016G22KT 2 1/2SM -RA BR BKN012 OVC021 13/13 A2991 RMK AO2 PK WND 21032/2000 SLP129 P0014 60038 T01330133 56038
3:55 PMM2.5 BKN012
OVC021
-RA BR % 29.910.01
KPVD 032055Z AUTO ///19KT 2 1/2SM -RA BR BKN012 OVC021 13/13 A2991 RMK P0001 T01300130 MADISHF
4:00 PMSSW 232.5 BKN012
OVC021
-RA BR % 29.910.01
KPVD 032100Z AUTO 21020KT 2 1/2SM -RA BR BKN012 OVC021 14/13 A2991 RMK P0001 T01400130 MADISHF
4:00 PMM2.5 BKN012
OVC021
-RA BR % 29.910.01
KPVD 032100Z AUTO ///20KT 2 1/2SM -RA BR BKN012 OVC021 14/13 A2991 RMK P0001 T01400130 MADISHF
4:10 PMSW 18G 304 BKN014
OVC021
-RA BR575657 96% 29.910.01
KPVD 032110Z 22016G26KT 4SM -RA BR BKN014 OVC021 14/13 A2991 RMK AO2 PK WND 21026/2102 P0001 T01390133
4:10 PMSW 18G 264 BKN014
OVC021
-RA BR % 29.910.01
KPVD 032110Z AUTO 22016G23KT 4SM -RA BR BKN014 OVC021 14/13 A2991 RMK P0001 T01400130 MADISHF
4:10 PMM4 BKN014
OVC021
-RA BR % 29.910.01
KPVD 032110Z AUTO ///16G23KT 4SM -RA BR BKN014 OVC021 14/13 A2991 RMK P0001 T01400130 MADISHF
4:15 PMSW 184 BKN014
OVC021
-RA BR % 29.910.01
KPVD 032115Z AUTO 22016KT 4SM -RA BR BKN014 OVC021 14/13 A2991 RMK P0001 T01400130 MADISHF
4:15 PMM4 BKN014
OVC021
-RA BR % 29.910.01
KPVD 032115Z AUTO ///16KT 4SM -RA BR BKN014 OVC021 14/13 A2991 RMK P0001 T01400130 MADISHF
4:20 PMSW 20G 264 BKN014
OVC021
-RA BR % 29.910.01
KPVD 032120Z AUTO 22017G23KT 4SM -RA BR BKN014 OVC021 14/13 A2991 RMK P0001 T01400130 MADISHF
4:20 PMM4 BKN014
OVC021
-RA BR % 29.910.01
KPVD 032120Z AUTO ///17G23KT 4SM -RA BR BKN014 OVC021 14/13 A2991 RMK P0001 T01400130 MADISHF
4:25 PMSSW 174 BKN014
OVC021
-RA BR % 29.910.02
KPVD 032125Z AUTO 21015KT 4SM -RA BR BKN014 OVC021 14/13 A2991 RMK P0002 T01400130 MADISHF
4:25 PMM4 BKN014
OVC021
-RA BR % 29.910.02
KPVD 032125Z AUTO ///15KT 4SM -RA BR BKN014 OVC021 14/13 A2991 RMK P0002 T01400130 MADISHF
4:30 PMSW 21G 284 BKN014
OVC021
-RA BR % 29.90.02
KPVD 032130Z AUTO 22018G24KT 4SM -RA BR BKN014 OVC021 13/13 A2990 RMK P0002 T01300130 MADISHF
4:30 PMM4 BKN014
OVC021
-RA BR % 29.90.02
KPVD 032130Z AUTO ///18G24KT 4SM -RA BR BKN014 OVC021 13/13 A2990 RMK P0002 T01300130 MADISHF
4:35 PMSSW 204 BKN014
OVC021
-RA BR % 29.90.02
KPVD 032135Z AUTO 21017KT 4SM -RA BR BKN014 OVC021 14/13 A2990 RMK P0002 T01400130 MADISHF
4:35 PMM4 BKN014
OVC021
-RA BR % 29.90.02
KPVD 032135Z AUTO ///17KT 4SM -RA BR BKN014 OVC021 14/13 A2990 RMK P0002 T01400130 MADISHF
4:40 PMM4 BKN014
OVC021
-RA BR % 29.90.02
KPVD 032140Z AUTO ///19KT 4SM -RA BR BKN014 OVC021 14/13 A2990 RMK P0002 T01400130 MADISHF
4:45 PMM6 BKN014
OVC019
-RA BR % 29.90.02
KPVD 032145Z AUTO ///16KT 6SM -RA BR BKN014 OVC019 14/13 A2990 RMK P0002 T01400130 MADISHF
4:50 PMM7 BKN014
OVC019
-RA % 29.90.02
KPVD 032150Z AUTO ///14KT 7SM -RA BKN014 OVC019 14/13 A2990 RMK P0002 T01400130 MADISHF
4:51 PMSW 17G 297 BKN014
OVC019
-RA575657 96% 29.91012.60.02
KPVD 032151Z 23015G25KT 7SM -RA BKN014 OVC019 14/13 A2990 RMK AO2 PK WND 21026/2122 SLP126 P0002 T01390133
4:55 PMSW 18G 257 BKN014
OVC019
-RA % 29.9
KPVD 032155Z AUTO 23016G22KT 7SM -RA BKN014 OVC019 14/13 A2990 RMK T01400130 MADISHF
5:00 PMSW 1610 BKN014
BKN019
OVC030
% 29.9
KPVD 032200Z AUTO 22014KT 10SM BKN014 BKN019 OVC030 14/13 A2990 RMK T01400130 MADISHF
5:00 PMM10 BKN014
BKN019
OVC030
% 29.9
KPVD 032200Z AUTO ///14KT 10SM BKN014 BKN019 OVC030 14/13 A2990 RMK T01400130 MADISHF
5:05 PMSW 1610 BKN014
BKN019
OVC030
% 29.9
KPVD 032205Z AUTO 22014KT 10SM BKN014 BKN019 OVC030 14/13 A2990 RMK T01400130 MADISHF
5:05 PMM10 BKN014
BKN019
OVC030
% 29.9
KPVD 032205Z AUTO ///14KT 10SM BKN014 BKN019 OVC030 14/13 A2990 RMK T01400130 MADISHF
5:10 PMSW 189 BKN014
BKN019
OVC030
-RA % 29.9
KPVD 032210Z AUTO 22016KT 9SM -RA BKN014 BKN019 OVC030 13/13 A2990 RMK T01300130 MADISHF
5:10 PMM9 BKN014
BKN019
OVC030
-RA % 29.9
KPVD 032210Z AUTO ///16KT 9SM -RA BKN014 BKN019 OVC030 13/13 A2990 RMK T01300130 MADISHF
5:15 PMM8 BKN014
BKN019
OVC030
-RA % 29.9
KPVD 032215Z AUTO ///14KT 8SM -RA BKN014 BKN019 OVC030 13/13 A2990 RMK T01300130 MADISHF
5:20 PMWSW 158 BKN014
BKN019
OVC030
-RA % 29.91
KPVD 032220Z AUTO 24013KT 8SM -RA BKN014 BKN019 OVC030 13/13 A2991 RMK T01300130 MADISHF
5:20 PMM8 BKN014
BKN019
OVC030
-RA % 29.91
KPVD 032220Z AUTO ///13KT 8SM -RA BKN014 BKN019 OVC030 13/13 A2991 RMK T01300130 MADISHF
5:25 PMM8 BKN014
BKN019
OVC030
-RA % 29.91
KPVD 032225Z AUTO ///15KT 8SM -RA BKN014 BKN019 OVC030 13/13 A2991 RMK T01300130 MADISHF
5:30 PMSW 158 BKN014
BKN019
OVC030
-RA % 29.91
KPVD 032230Z AUTO 23013KT 8SM -RA BKN014 BKN019 OVC030 14/13 A2991 RMK T01400130 MADISHF
5:30 PMM8 BKN014
BKN019
OVC030
-RA % 29.91
KPVD 032230Z AUTO ///13KT 8SM -RA BKN014 BKN019 OVC030 14/13 A2991 RMK T01400130 MADISHF
5:35 PMSW 1510 BKN014
BKN019
OVC030
-RA % 29.910.01
KPVD 032235Z AUTO 22013KT 10SM -RA BKN014 BKN019 OVC030 13/13 A2991 RMK P0001 T01300130 MADISHF
5:35 PMM10 BKN014
BKN019
OVC030
-RA % 29.910.01
KPVD 032235Z AUTO ///13KT 10SM -RA BKN014 BKN019 OVC030 13/13 A2991 RMK P0001 T01300130 MADISHF
5:40 PMM10 BKN014
BKN019
OVC030
% 29.910.01
KPVD 032240Z AUTO ///14KT 10SM BKN014 BKN019 OVC030 14/13 A2991 RMK P0001 T01400130 MADISHF
5:45 PMSW 1310 BKN014
BKN022
OVC040
% 29.910.01
KPVD 032245Z AUTO 22011KT 10SM BKN014 BKN022 OVC040 13/13 A2991 RMK P0001 T01300130 MADISHF
5:45 PMM10 BKN014
BKN022
OVC040
% 29.910.01
KPVD 032245Z AUTO ///11KT 10SM BKN014 BKN022 OVC040 13/13 A2991 RMK P0001 T01300130 MADISHF
5:50 PMSW 1310 BKN014
BKN022
OVC040
% 29.910.01
KPVD 032250Z AUTO 22011KT 10SM BKN014 BKN022 OVC040 13/13 A2991 RMK P0001 T01300130 MADISHF
5:50 PMM10 BKN014
BKN022
OVC040
% 29.910.01
KPVD 032250Z AUTO ///11KT 10SM BKN014 BKN022 OVC040 13/13 A2991 RMK P0001 T01300130 MADISHF
5:51 PMSW 14G 2210 BKN014
BKN022
OVC040
565656 100% 29.911012.70.01
KPVD 032251Z 22012G19KT 10SM BKN014 BKN022 OVC040 13/13 A2991 RMK AO2 RAE37 SLP127 P0001 T01330133
5:55 PMM10 BKN014
BKN022
OVC040
% 29.91
KPVD 032255Z AUTO ///11KT 10SM BKN014 BKN022 OVC040 13/13 A2991 RMK T01300130 MADISHF
6:00 PMSW 1310 BKN014
BKN022
OVC040
% 29.91
KPVD 032300Z AUTO 22011KT 10SM BKN014 BKN022 OVC040 13/13 A2991 RMK T01300130 MADISHF
6:05 PMSW 2010 BKN014
BKN022
OVC040
% 29.9
KPVD 032305Z AUTO 22017KT 10SM BKN014 BKN022 OVC040 13/13 A2990 RMK T01300130 MADISHF
6:05 PMM10 BKN014
BKN022
OVC040
% 29.9
KPVD 032305Z AUTO ///17KT 10SM BKN014 BKN022 OVC040 13/13 A2990 RMK T01300130 MADISHF
6:09 PMSW 18G 2910 SCT014
BKN028
OVC043
575557 93% 29.90
KPVD 032309Z 22016G25KT 10SM SCT014 BKN028 OVC043 14/13 A2990 RMK AO2 T01390128
6:10 PMSW 1810 SCT014
BKN028
OVC043
% 29.9
KPVD 032310Z AUTO 23016KT 10SM SCT014 BKN028 OVC043 14/13 A2990 RMK T01400130 MADISHF
6:10 PMM10 SCT014
BKN028
OVC043
% 29.9
KPVD 032310Z AUTO ///16KT 10SM SCT014 BKN028 OVC043 14/13 A2990 RMK T01400130 MADISHF
6:15 PMSW 15G 2110 SCT014
BKN028
OVC043
% 29.9
KPVD 032315Z AUTO 22013G18KT 10SM SCT014 BKN028 OVC043 14/13 A2990 RMK T01400130 MADISHF
6:15 PMM10 SCT014
BKN028
OVC043
% 29.9
KPVD 032315Z AUTO ///13G18KT 10SM SCT014 BKN028 OVC043 14/13 A2990 RMK T01400130 MADISHF
6:20 PMSW 1710 SCT014
BKN028
OVC043
% 29.9
KPVD 032320Z AUTO 22015KT 10SM SCT014 BKN028 OVC043 13/13 A2990 RMK T01300130 MADISHF
6:20 PMM10 SCT014
BKN028
OVC043
% 29.9
KPVD 032320Z AUTO ///15KT 10SM SCT014 BKN028 OVC043 13/13 A2990 RMK T01300130 MADISHF
6:25 PMSW 1710 SCT014
BKN028
OVC043
% 29.9
KPVD 032325Z AUTO 22015KT 10SM SCT014 BKN028 OVC043 14/13 A2990 RMK T01400130 MADISHF
6:25 PMM10 SCT014
BKN028
OVC043
% 29.9
KPVD 032325Z AUTO ///15KT 10SM SCT014 BKN028 OVC043 14/13 A2990 RMK T01400130 MADISHF
6:30 PMSW 1610 SCT014
BKN028
OVC043
% 29.9
KPVD 032330Z AUTO 22014KT 10SM SCT014 BKN028 OVC043 13/13 A2990 RMK T01300130 MADISHF
6:30 PMM10 SCT014
BKN028
OVC043
% 29.9
KPVD 032330Z AUTO ///14KT 10SM SCT014 BKN028 OVC043 13/13 A2990 RMK T01300130 MADISHF
6:35 PMSW 1310 SCT014
BKN028
OVC043
% 29.9
KPVD 032335Z AUTO 22011KT 10SM SCT014 BKN028 OVC043 13/13 A2990 RMK T01300130 MADISHF
6:40 PMM10 SCT014
BKN028
OVC043
% 29.9
KPVD 032340Z AUTO ///16KT 10SM SCT014 BKN028 OVC043 13/13 A2990 RMK T01300130 MADISHF
6:45 PMSW 1310 SCT014
BKN028
OVC043
% 29.9
KPVD 032345Z AUTO 22011KT 10SM SCT014 BKN028 OVC043 13/13 A2990 RMK T01300130 MADISHF
6:50 PMSW 1310 FEW014
BKN028
BKN043
% 29.9
KPVD 032350Z AUTO 23011KT 10SM FEW014 BKN028 BKN043 13/13 A2990 RMK T01300130 MADISHF
6:51 PMSW 13G 2610 FEW014
BKN028
BKN043
565556 57 56 97% 29.91012.50
KPVD 032351Z 23011G23KT 10SM FEW014 BKN028 BKN043 13/13 A2990 RMK AO2 SLP125 60041 T01330128 10139 20133 56005
6:55 PMWSW 1610 FEW014
BKN028
BKN043
% 29.9
KPVD 032355Z AUTO 24014KT 10SM FEW014 BKN028 BKN043 13/13 A2990 RMK T01300130 MADISHF
7:00 PMSW 1510 FEW014
BKN028
BKN043
% 29.91
KPVD 040000Z AUTO 23013KT 10SM FEW014 BKN028 BKN043 13/13 A2991 RMK T01300130 MADISHF
7:00 PMM10 FEW014
BKN028
BKN043
% 29.91
KPVD 040000Z AUTO ///13KT 10SM FEW014 BKN028 BKN043 13/13 A2991 RMK T01300130 MADISHF
7:05 PMSW 1710 FEW014
BKN028
BKN043
% 29.9
KPVD 040005Z AUTO 23015KT 10SM FEW014 BKN028 BKN043 13/13 A2990 RMK T01300130 MADISHF
7:05 PMM10 FEW014
BKN028
BKN043
% 29.9
KPVD 040005Z AUTO ///15KT 10SM FEW014 BKN028 BKN043 13/13 A2990 RMK T01300130 MADISHF
7:10 PMWSW 1310 FEW014
BKN028
BKN043
% 29.91
KPVD 040010Z AUTO 24011KT 10SM FEW014 BKN028 BKN043 13/13 A2991 RMK T01300130 MADISHF
7:15 PMWSW 13G 2010 FEW014
BKN028
BKN043
% 29.9
KPVD 040015Z AUTO 24011G17KT 10SM FEW014 BKN028 BKN043 13/12 A2990 RMK T01300120 MADISHF
7:20 PMSW 1610 FEW014
BKN028
BKN043
% 29.9
KPVD 040020Z AUTO 23014KT 10SM FEW014 BKN028 BKN043 13/11 A2990 RMK T01300110 MADISHF
7:20 PMM10 FEW014
BKN028
BKN043
% 29.9
KPVD 040020Z AUTO ///14KT 10SM FEW014 BKN028 BKN043 13/11 A2990 RMK T01300110 MADISHF
7:23 PMWSW 17G 2210 FEW017
SCT026
BKN065
565256 87% 29.90
KPVD 040023Z 24015G19KT 10SM FEW017 SCT026 BKN065 13/11 A2990 RMK AO2 T01330111
7:25 PMM10 FEW017
SCT026
BKN065
% 29.9
KPVD 040025Z AUTO ///15KT 10SM FEW017 SCT026 BKN065 13/11 A2990 RMK T01300110 MADISHF
7:30 PMWSW 1310 FEW017
SCT026
BKN065
% 29.9
KPVD 040030Z AUTO 24011KT 10SM FEW017 SCT026 BKN065 13/11 A2990 RMK T01300110 MADISHF
7:35 PMWSW 1310 FEW017
SCT026
BKN065
% 29.9
KPVD 040035Z AUTO 24011KT 10SM FEW017 SCT026 BKN065 13/11 A2990 RMK T01300110 MADISHF
7:40 PMSW 1510 BKN060
% 29.91
KPVD 040040Z AUTO 23013KT 10SM BKN060 13/11 A2991 RMK T01300110 MADISHF
7:40 PMM10 BKN060
% 29.91
KPVD 040040Z AUTO ///13KT 10SM BKN060 13/11 A2991 RMK T01300110 MADISHF
7:45 PMWSW 1610 BKN060
% 29.9
KPVD 040045Z AUTO 24014KT 10SM BKN060 13/10 A2990 RMK T01300100 MADISHF
7:45 PMM10 BKN060
% 29.9
KPVD 040045Z AUTO ///14KT 10SM BKN060 13/10 A2990 RMK T01300100 MADISHF
7:50 PMSW 1610 SCT026
BKN055
BKN090
% 29.9
KPVD 040050Z AUTO 23014KT 10SM SCT026 BKN055 BKN090 13/10 A2990 RMK T01300100 MADISHF
7:50 PMM10 SCT026
BKN055
BKN090
% 29.9
KPVD 040050Z AUTO ///14KT 10SM SCT026 BKN055 BKN090 13/10 A2990 RMK T01300100 MADISHF
7:51 PMWSW 17G 2310 SCT026
BKN055
BKN090
565056 81% 29.91012.70
KPVD 040051Z 25015G20KT 10SM SCT026 BKN055 BKN090 13/10 A2990 RMK AO2 SLP127 T01330100
7:55 PMM10 BKN060
BKN070
% 29.9
KPVD 040055Z AUTO ///14KT 10SM BKN060 BKN070 13/10 A2990 RMK T01300100 MADISHF
8:00 PMWSW 1710 BKN060
BKN070
BKN110
-RA % 29.91
KPVD 040100Z AUTO 25015KT 10SM -RA BKN060 BKN070 BKN110 13/10 A2991 RMK T01300100 MADISHF
8:05 PMWSW 1610 BKN060
BKN070
OVC100
-RA % 29.91
KPVD 040105Z AUTO 25014KT 10SM -RA BKN060 BKN070 OVC100 13/09 A2991 RMK T01300090 MADISHF
8:10 PMWSW 1310 SCT060
SCT070
OVC100
% 29.91
KPVD 040110Z AUTO 25011KT 10SM SCT060 SCT070 OVC100 13/09 A2991 RMK T01300090 MADISHF
8:15 PMWSW 1510 FEW060
BKN100
% 29.91
KPVD 040115Z AUTO 25013KT 10SM FEW060 BKN100 13/09 A2991 RMK T01300090 MADISHF
8:20 PMWSW 1310 FEW055
OVC095
% 29.92
KPVD 040120Z AUTO 25011KT 10SM FEW055 OVC095 13/09 A2992 RMK T01300090 MADISHF
8:25 PMW 1310 FEW032
FEW050
OVC090
% 29.92
KPVD 040125Z AUTO 26011KT 10SM FEW032 FEW050 OVC090 13/09 A2992 RMK T01300090 MADISHF
8:30 PMW 1310 FEW029
BKN090
OVC100
% 29.92
KPVD 040130Z AUTO 27011KT 10SM FEW029 BKN090 OVC100 13/09 A2992 RMK T01300090 MADISHF
8:35 PMW 15G 2110 SCT030
BKN085
OVC100
% 29.92
KPVD 040135Z AUTO 27013G18KT 10SM SCT030 BKN085 OVC100 13/09 A2992 RMK T01300090 MADISHF
8:35 PMM10 SCT030
BKN085
OVC100
% 29.92
KPVD 040135Z AUTO ///13G18KT 10SM SCT030 BKN085 OVC100 13/09 A2992 RMK T01300090 MADISHF
8:40 PMNW 2010 SCT026
BKN032
OVC085
% 29.93
KPVD 040140Z AUTO 31017KT 10SM SCT026 BKN032 OVC085 13/08 A2993 RMK T01300080 MADISHF
8:40 PMM10 SCT026
BKN032
OVC085
% 29.93
KPVD 040140Z AUTO ///17KT 10SM SCT026 BKN032 OVC085 13/08 A2993 RMK T01300080 MADISHF
8:45 PMNW 1310 SCT026
BKN030
OVC085
% 29.94
KPVD 040145Z AUTO 31011KT 10SM SCT026 BKN030 OVC085 12/07 A2994 RMK T01200070 MADISHF
8:45 PMM10 SCT026
BKN030
OVC085
% 29.94
KPVD 040145Z AUTO ///11KT 10SM SCT026 BKN030 OVC085 12/07 A2994 RMK T01200070 MADISHF
8:47 PMNW 14G 3010 BKN026
BKN037
OVC085
544554 71% 29.94T
KPVD 040147Z 32012G26KT 10SM BKN026 BKN037 OVC085 12/07 A2994 RMK AO2 PK WND 34026/0138 WSHFT 0133 RAB00E09 PRESRR P0000
8:50 PMWNW 1210 BKN026
BKN035
OVC085
% 29.95
KPVD 040150Z AUTO 30010KT 10SM BKN026 BKN035 OVC085 11/07 A2995 RMK T01100070 MADISHF
8:51 PMNW 1210 BKN026
BKN035
OVC080
524452 74% 29.951014T
KPVD 040151Z 31010KT 10SM BKN026 BKN035 OVC080 11/07 A2995 RMK AO2 PK WND 34026/0138 WSHFT 0133 RAB00E09 SLP140 P0000 T01110067
8:55 PMNW 1310 BKN027
BKN035
OVC085
% 29.95
KPVD 040155Z AUTO 31011KT 10SM BKN027 BKN035 OVC085 11/06 A2995 RMK T01100060 MADISHF
9:00 PMWNW 17G 2510 BKN027
BKN035
OVC085
% 29.95
KPVD 040200Z AUTO 30015G22KT 10SM BKN027 BKN035 OVC085 11/06 A2995 RMK T01100060 MADISHF
9:00 PMM10 BKN027
BKN035
OVC085
% 29.95
KPVD 040200Z AUTO ///15G22KT 10SM BKN027 BKN035 OVC085 11/06 A2995 RMK T01100060 MADISHF
9:05 PMWNW 13G 1810 BKN027
BKN035
OVC085
% 29.96
KPVD 040205Z AUTO 29011G16KT 10SM BKN027 BKN035 OVC085 11/04 A2996 RMK T01100040 MADISHF
9:05 PMM10 BKN027
BKN035
OVC085
% 29.96
KPVD 040205Z AUTO ///11G16KT 10SM BKN027 BKN035 OVC085 11/04 A2996 RMK T01100040 MADISHF
9:10 PMWNW 20G 2810 BKN027
BKN035
OVC085
% 29.97
KPVD 040210Z AUTO 29017G24KT 10SM BKN027 BKN035 OVC085 11/04 A2997 RMK T01100040 MADISHF
9:10 PMM10 BKN027
BKN035
OVC085
% 29.97
KPVD 040210Z AUTO ///17G24KT 10SM BKN027 BKN035 OVC085 11/04 A2997 RMK T01100040 MADISHF
9:14 PMWNW 14G 3010 SCT027
BKN039
OVC050
513952 63% 29.970
KPVD 040214Z 30012G26KT 10SM SCT027 BKN039 OVC050 11/04 A2997 RMK AO2 PK WND 29026/0210 T01060039
9:14 PMWNW 14G 3010 SCT027
BKN039
OVC050
523952 62% 29.970
KPVD 040214Z 30012G26KT 10SM SCT027 BKN039 OVC050 11/04 A2997
9:15 PMWNW 15G 2110 FEW027
BKN039
OVC050
% 29.97
KPVD 040215Z AUTO 30013G18KT 10SM FEW027 BKN039 OVC050 11/04 A2997 RMK T01100040 MADISHF
9:15 PMM10 FEW027
BKN039
OVC050
% 29.97
KPVD 040215Z AUTO ///13G18KT 10SM FEW027 BKN039 OVC050 11/04 A2997 RMK T01100040 MADISHF
9:20 PMM10 BKN039
OVC050
% 29.97
KPVD 040220Z AUTO ///14KT 10SM BKN039 OVC050 10/04 A2997 RMK T01000040 MADISHF
9:25 PMWNW 1710 OVC042
% 29.97
KPVD 040225Z AUTO 30015KT 10SM OVC042 10/04 A2997 RMK T01000040 MADISHF
9:25 PMM10 OVC042
% 29.97
KPVD 040225Z AUTO ///15KT 10SM OVC042 10/04 A2997 RMK T01000040 MADISHF
9:30 PMNW 20G 2510 BKN042
OVC055
% 29.98
KPVD 040230Z AUTO 31017G22KT 10SM BKN042 OVC055 10/04 A2998 RMK T01000040 MADISHF
9:30 PMM10 BKN042
OVC055
% 29.98
KPVD 040230Z AUTO ///17G22KT 10SM BKN042 OVC055 10/04 A2998 RMK T01000040 MADISHF
9:35 PMM10 BKN042
OVC055
% 29.98
KPVD 040235Z AUTO ///16KT 10SM BKN042 OVC055 09/03 A2998 RMK T00900030 MADISHF
9:40 PMM10 SCT038
BKN046
OVC060
% 29.99
KPVD 040240Z AUTO ///17G22KT 10SM SCT038 BKN046 OVC060 09/03 A2999 RMK T00900030 MADISHF
9:45 PMWNW 21G 2810 BKN043
BKN050
% 29.99
KPVD 040245Z AUTO 29018G24KT 10SM BKN043 BKN050 09/02 A2999 RMK T00900020 MADISHF
9:50 PMWNW 2010 BKN046
BKN060
% 29.99
KPVD 040250Z AUTO 30017KT 10SM BKN046 BKN060 08/01 A2999 RMK T00800010 MADISHF
9:51 PMWNW 17G 3210 BKN048
BKN060
473440 61% 29.991015.70T
KPVD 040251Z 30015G28KT 10SM BKN048 BKN060 08/01 A2999 RMK AO2 PK WND 32028/0242 SLP157 60000 T00830011 53032
9:55 PMWNW 1510 BKN048
% 30
KPVD 040255Z AUTO 30013KT 10SM BKN048 08/01 A3000 RMK T00800010 MADISHF
10:00 PMWNW 1810 BKN048
% 30
KPVD 040300Z AUTO 29016KT 10SM BKN048 08/01 A3000 RMK T00800010 MADISHF
10:00 PMM10 BKN048
% 30
KPVD 040300Z AUTO ///16KT 10SM BKN048 08/01 A3000 RMK T00800010 MADISHF
10:05 PMWNW 1710 BKN050
% 30
KPVD 040305Z AUTO 29015KT 10SM BKN050 08/01 A3000 RMK T00800010 MADISHF
10:05 PMM10 BKN050
% 30
KPVD 040305Z AUTO ///15KT 10SM BKN050 08/01 A3000 RMK T00800010 MADISHF
10:10 PMWNW 1510 BKN050
% 30
KPVD 040310Z AUTO 29013KT 10SM BKN050 08/01 A3000 RMK T00800010 MADISHF
10:15 PMWNW 18G 2410 SCT050
% 30
KPVD 040315Z AUTO 29016G21KT 10SM SCT050 07/00 A3000 RMK T00700000 MADISHF
10:20 PMWNW 13G 2210 SCT050
% 30
KPVD 040320Z AUTO 30011G19KT 10SM SCT050 07/00 A3000 RMK T00700000 MADISHF
10:25 PMNW 10G 1610 FEW050
% 30.01
KPVD 040325Z AUTO 31009G14KT 10SM FEW050 07/00 A3001 RMK T00700000 MADISHF
10:30 PMNW 1310 FEW050
% 30.01
KPVD 040330Z AUTO 31011KT 10SM FEW050 07/00 A3001 RMK T00700000 MADISHF
10:35 PMNW 1310 CLR
% 30
KPVD 040335Z AUTO 31011KT 10SM CLR 07/00 A3000 RMK T00700000 MADISHF
10:40 PMM10 CLR
% 30.01
KPVD 040340Z AUTO ///14KT 10SM CLR 07/00 A3001 RMK T00700000 MADISHF
10:45 PMNW 1210 CLR
% 30.01
KPVD 040345Z AUTO 31010KT 10SM CLR 07/M01 A3001 RMK T00701010 MADISHF
10:50 PMNW 1210 FEW050
% 30.01
KPVD 040350Z AUTO 31010KT 10SM FEW050 07/M01 A3001 RMK T00701010 MADISHF
10:51 PMNW 1010 FEW050
443139 60% 30.011016.20
KPVD 040351Z 31009KT 10SM FEW050 07/M01 A3001 RMK AO2 SLP162 T00671006
11:00 PMNW 12G 1810 CLR
% 30.01
KPVD 040400Z AUTO 31010G16KT 10SM CLR 07/M01 A3001 RMK T00701010 MADISHF
11:05 PMNW 15G 2110 CLR
% 30.01
KPVD 040405Z AUTO 31013G18KT 10SM CLR 07/M01 A3001 RMK T00701010 MADISHF
11:05 PMM10 CLR
% 30.01
KPVD 040405Z AUTO ///13G18KT 10SM CLR 07/M01 A3001 RMK T00701010 MADISHF
11:10 PMNW 1210 CLR
% 30.01
KPVD 040410Z AUTO 31010KT 10SM CLR 07/M01 A3001 RMK T00701010 MADISHF
11:15 PMNW 1010 CLR
% 30.01
KPVD 040415Z AUTO 32009KT 10SM CLR 06/M01 A3001 RMK T00601010 MADISHF
11:20 PMNW 910 CLR
% 30.01
KPVD 040420Z AUTO 32008KT 10SM CLR 06/M01 A3001 RMK T00601010 MADISHF
11:25 PMNW 1010 CLR
% 30.01
KPVD 040425Z AUTO 32009KT 10SM CLR 06/M01 A3001 RMK T00601010 MADISHF
11:30 PMNW 10G 1610 CLR
% 30.01
KPVD 040430Z AUTO 32009G14KT 10SM CLR 06/M01 A3001 RMK T00601010 MADISHF
11:35 PMM10 CLR
% 30.01
KPVD 040435Z AUTO ///13KT 10SM CLR 06/M02 A3001 RMK T00601020 MADISHF
11:40 PMM10 CLR
% 30.01
KPVD 040440Z AUTO ///11KT 10SM CLR 06/M02 A3001 RMK T00601020 MADISHF
11:45 PMM10 CLR
% 30.01
KPVD 040445Z AUTO ///14G19KT 10SM CLR 06/M02 A3001 RMK T00601020 MADISHF
11:50 PMWNW 13G 2010 CLR
% 30.02
KPVD 040450Z AUTO 30011G17KT 10SM CLR 06/M02 A3002 RMK T00601020 LAST MADISHF
11:51 PMNW 15G 2510 CLR
432936 57% 30.021016.40
KPVD 040451Z 31013G22KT 10SM CLR 06/M02 A3002 RMK AO2 SLP164 LAST T00611017 401500011

The IEM API webservice that provided data to this page. For more details, see documentation.

Data Notes

  • For recent years, this page also optionally shows observations from the MADIS High Frequency METAR dataset. This dataset had a problem with temperatures detailed here.